Time;durP1;ratioP1;P1;durP2;ratioP2;P2;SDS_P1;SDS_P2;PMS_P1;PMS_P2;Temp;Humidity;BMP_temperature;BMP_pressure;BME280_temperature;BME280_humidity;BME280_pressure;Samples;Min_cycle;Max_cycle;Signal;HPM_P1;HPM_P2
2024/01/27 00:00:21;;;;;;;;;;;;;;;15.64;42.56;101275.44;5027317;28;1083;-47
2024/01/27 00:02:47;;;;;;;;;;;;;;;15.80;42.06;101287.44;5032134;28;1182;-47
2024/01/27 00:05:12;;;;;;;;;;;;;;;17.29;39.21;101290.72;5018532;28;1091;-48
2024/01/27 00:07:38;;;;;;;;;;;;;;;17.47;38.50;101294.13;5032361;28;1075;-49
2024/01/27 00:10:03;;;;;;;;;;;;;;;16.46;40.53;101293.91;5028554;28;1125;-44
2024/01/27 00:12:29;;;;;;;;;;;;;;;15.95;41.91;101297.78;5038510;28;1917;-49
2024/01/27 00:14:54;;;;;;;;;;;;;;;15.64;42.54;101291.88;5034307;28;840;-48
2024/01/27 00:17:23;;;;;;;;;;;;;;;16.64;40.52;101299.00;5021894;28;1077;-47
2024/01/27 00:19:50;;;;;;;;;;;;;;;17.69;38.14;101302.22;5018350;28;2644;-49
2024/01/27 00:22:16;;;;;;;;;;;;;;;16.54;40.39;101299.75;5031581;28;1124;-50
2024/01/27 00:24:42;;;;;;;;;;;;;;;16.00;41.76;101292.31;5018458;28;1035;-49
2024/01/27 00:27:08;;;;;;;;;;;;;;;15.65;42.22;101299.00;5024245;28;1085;-49
2024/01/27 00:29:33;;;;;;;;;;;;;;;16.46;40.79;101302.16;5038436;28;1036;-48
2024/01/27 00:31:59;;;;;;;;;;;;;;;17.64;38.40;101304.94;5033896;28;1913;-49
2024/01/27 00:34:25;;;;;;;;;;;;;;;16.72;39.96;101300.47;5029150;28;1131;-47
2024/01/27 00:36:51;;;;;;;;;;;;;;;16.10;41.40;101304.50;5037622;28;1146;-51
2024/01/27 00:39:16;;;;;;;;;;;;;;;15.73;42.32;101308.72;5032829;28;836;-47
2024/01/27 00:41:43;;;;;;;;;;;;;;;16.43;40.77;101298.00;5037818;28;1039;-46
2024/01/27 00:44:08;;;;;;;;;;;;;;;17.65;38.34;101312.09;5027741;28;1067;-49
2024/01/27 00:46:34;;;;;;;;;;;;;;;16.73;40.08;101302.09;5031126;28;1072;-50
2024/01/27 00:48:59;;;;;;;;;;;;;;;16.05;41.42;101300.63;5018390;28;1189;-50
2024/01/27 00:51:25;;;;;;;;;;;;;;;15.76;42.22;101299.16;5021613;28;1905;-48
2024/01/27 00:53:50;;;;;;;;;;;;;;;16.17;41.36;101295.00;5037712;28;1035;-49
2024/01/27 00:56:16;;;;;;;;;;;;;;;17.51;38.35;101303.50;5021452;28;1082;-45
2024/01/27 00:58:41;;;;;;;;;;;;;;;16.96;39.52;101303.69;5017918;28;1016;-47
2024/01/27 01:01:07;;;;;;;;;;;;;;;16.20;40.99;101299.97;5022759;28;1102;-48
2024/01/27 01:03:32;;;;;;;;;;;;;;;15.74;42.35;101300.22;5030063;28;1032;-46
2024/01/27 01:05:58;;;;;;;;;;;;;;;15.53;42.50;101296.41;5034687;28;1086;-49
2024/01/27 01:08:23;;;;;;;;;;;;;;;16.83;40.14;101299.47;5027547;28;1087;-49
2024/01/27 01:10:49;;;;;;;;;;;;;;;17.69;38.14;101303.03;5021166;28;1909;-46
2024/01/27 01:13:14;;;;;;;;;;;;;;;16.58;40.15;101295.41;5017508;28;1072;-46
2024/01/27 01:15:40;;;;;;;;;;;;;;;15.97;41.61;101303.81;5033158;28;900;-47
2024/01/27 01:18:05;;;;;;;;;;;;;;;15.63;42.36;101295.72;5024165;28;1092;-48
2024/01/27 01:20:32;;;;;;;;;;;;;;;16.40;40.92;101291.09;5026766;28;2594;-46
2024/01/27 01:22:58;;;;;;;;;;;;;;;17.56;38.54;101287.03;5027008;28;1044;-46
2024/01/27 01:25:23;;;;;;;;;;;;;;;16.95;39.60;101285.56;5034621;28;1102;-47
2024/01/27 01:27:49;;;;;;;;;;;;;;;16.16;41.15;101287.00;5034420;28;894;-48
2024/01/27 01:30:18;;;;;;;;;;;;;;;15.74;42.02;101281.03;5021023;28;1131;-48
2024/01/27 01:32:43;;;;;;;;;;;;;;;15.59;42.53;101272.63;5017409;28;1906;-46
2024/01/27 01:35:11;;;;;;;;;;;;;;;17.13;39.29;101262.31;5032806;28;1009;-48
2024/01/27 01:37:37;;;;;;;;;;;;;;;17.53;38.45;101260.91;5036854;28;1064;-50
2024/01/27 01:40:03;;;;;;;;;;;;;;;16.45;40.23;101259.31;5034299;28;897;-50
2024/01/27 01:42:29;;;;;;;;;;;;;;;15.94;41.68;101262.38;5027658;28;1019;-48
2024/01/27 01:44:54;;;;;;;;;;;;;;;15.64;42.16;101264.47;5030665;28;1098;-49
2024/01/27 01:47:22;;;;;;;;;;;;;;;15.74;42.24;101259.09;5016949;28;984;-50
2024/01/27 01:49:47;;;;;;;;;;;;;;;17.26;39.05;101261.03;5030565;28;2525;-48
2024/01/27 01:52:19;;;;;;;;;;;;;;;17.46;38.17;101252.06;5027271;28;1907;-51
2024/01/27 01:54:47;;;;;;;;;;;;;;;16.40;40.44;101260.91;5031497;28;1119;-47
2024/01/27 01:57:13;;;;;;;;;;;;;;;15.86;41.85;101269.13;5027938;28;1147;-48
2024/01/27 01:59:40;;;;;;;;;;;;;;;15.66;42.06;101266.97;5034040;28;1456;-49
2024/01/27 02:02:06;;;;;;;;;;;;;;;17.14;39.23;101255.75;5027063;28;1079;-50
2024/01/27 02:04:44;;;;;;;;;;;;;;;17.54;38.05;101253.47;5030093;28;1012;-51
2024/01/27 02:07:09;;;;;;;;;;;;;;;16.31;40.60;101256.16;5029386;28;1027;-50
2024/01/27 02:09:35;;;;;;;;;;;;;;;15.93;41.34;101253.31;5029790;28;1031;-47
2024/01/27 02:12:01;;;;;;;;;;;;;;;15.67;42.08;101255.72;5016910;28;1902;-49
2024/01/27 02:14:27;;;;;;;;;;;;;;;17.01;39.49;101257.03;5016126;28;1064;-50
2024/01/27 02:16:53;;;;;;;;;;;;;;;17.38;38.34;101247.88;5029645;28;1096;-47
2024/01/27 02:19:18;;;;;;;;;;;;;;;16.39;40.43;101240.03;5022554;28;1114;-46
2024/01/27 02:21:44;;;;;;;;;;;;;;;15.90;41.63;101251.09;5036047;28;2843;-48
2024/01/27 02:24:10;;;;;;;;;;;;;;;15.77;41.79;101248.69;5029814;28;1086;-47
2024/01/27 02:26:35;;;;;;;;;;;;;;;17.35;38.75;101247.59;5016297;28;996;-50
2024/01/27 02:29:01;;;;;;;;;;;;;;;17.02;39.19;101242.19;5016490;28;1195;-50
2024/01/27 02:31:26;;;;;;;;;;;;;;;16.09;41.19;101237.84;5016220;28;1981;-50
2024/01/27 02:33:52;;;;;;;;;;;;;;;15.72;41.69;101233.03;5016524;28;1087;-48
2024/01/27 02:36:17;;;;;;;;;;;;;;;15.56;42.41;101243.00;5029725;28;1043;-46
2024/01/27 02:38:43;;;;;;;;;;;;;;;17.06;39.41;101235.06;5018514;28;1035;-50
2024/01/27 02:41:12;;;;;;;;;;;;;;;17.41;38.31;101230.03;5016482;28;1024;-46
2024/01/27 02:43:37;;;;;;;;;;;;;;;16.36;40.45;101221.34;5016269;28;1119;-46
2024/01/27 02:46:05;;;;;;;;;;;;;;;15.83;41.60;101214.81;5029329;28;976;-51
2024/01/27 02:48:31;;;;;;;;;;;;;;;15.65;42.28;101211.28;5036010;28;1140;-48
2024/01/27 02:50:56;;;;;;;;;;;;;;;17.19;39.01;101211.78;5034565;28;2605;-48
2024/01/27 02:53:22;;;;;;;;;;;;;;;17.38;38.43;101214.91;5022597;28;1000;-47
2024/01/27 02:55:47;;;;;;;;;;;;;;;16.38;40.20;101215.59;5035716;28;1091;-51
2024/01/27 02:58:13;;;;;;;;;;;;;;;15.93;41.56;101214.09;5035158;28;1182;-47
2024/01/27 03:00:38;;;;;;;;;;;;;;;15.66;42.05;101215.69;5023142;28;1113;-49
2024/01/27 03:03:04;;;;;;;;;;;;;;;16.87;39.73;101214.59;5016814;28;1015;-45
2024/01/27 03:05:29;;;;;;;;;;;;;;;17.74;37.55;101211.44;5016300;28;1024;-49
2024/01/27 03:07:55;;;;;;;;;;;;;;;16.56;40.13;101204.25;5029385;28;1168;-48
2024/01/27 03:10:21;;;;;;;;;;;;;;;16.00;41.16;101206.47;5028555;28;1087;-49
2024/01/27 03:12:46;;;;;;;;;;;;;;;15.61;42.16;101212.06;5035529;28;1917;-47
2024/01/27 03:15:12;;;;;;;;;;;;;;;16.46;40.35;101217.06;5030249;28;1066;-48
2024/01/27 03:17:37;;;;;;;;;;;;;;;17.57;37.90;101211.66;5029556;28;1044;-51
2024/01/27 03:20:03;;;;;;;;;;;;;;;16.82;39.62;101223.63;5016050;28;2473;-49
2024/01/27 03:22:28;;;;;;;;;;;;;;;16.08;40.97;101220.53;5021934;28;1073;-48
2024/01/27 03:24:55;;;;;;;;;;;;;;;15.71;41.97;101225.88;5035405;28;1047;-49
2024/01/27 03:27:20;;;;;;;;;;;;;;;16.15;41.07;101219.53;5029879;28;1087;-49
2024/01/27 03:29:46;;;;;;;;;;;;;;;17.51;38.06;101218.25;5025327;28;1140;-47
2024/01/27 03:32:11;;;;;;;;;;;;;;;17.00;38.89;101211.41;5020871;28;1918;-49
2024/01/27 03:34:37;;;;;;;;;;;;;;;16.20;40.61;101209.44;5024159;28;1135;-47
2024/01/27 03:37:03;;;;;;;;;;;;;;;15.84;41.80;101211.81;5032949;28;1234;-46
2024/01/27 03:39:28;;;;;;;;;;;;;;;15.56;42.34;101215.56;5031454;28;1127;-45
2024/01/27 03:41:54;;;;;;;;;;;;;;;17.02;39.09;101211.97;5025841;28;1019;-47
2024/01/27 03:44:19;;;;;;;;;;;;;;;17.29;38.52;101205.50;5038212;28;1031;-47
2024/01/27 03:46:45;;;;;;;;;;;;;;;16.33;40.42;101199.94;5038916;28;1007;-47
2024/01/27 03:49:11;;;;;;;;;;;;;;;15.84;41.46;101211.00;5027069;28;1106;-47
2024/01/27 03:51:36;;;;;;;;;;;;;;;15.71;41.91;101209.41;5036115;28;2470;-48
2024/01/27 03:54:02;;;;;;;;;;;;;;;16.77;39.62;101207.97;5038931;28;1070;-47
2024/01/27 03:56:27;;;;;;;;;;;;;;;17.67;37.64;101206.22;5025037;28;1095;-50
2024/01/27 03:58:53;;;;;;;;;;;;;;;16.57;39.85;101205.88;5027336;28;1035;-48
2024/01/27 04:01:18;;;;;;;;;;;;;;;15.96;41.25;101211.63;5034560;28;1068;-48
2024/01/27 04:03:44;;;;;;;;;;;;;;;15.67;41.99;101214.59;5031696;28;1048;-48
2024/01/27 04:06:09;;;;;;;;;;;;;;;16.79;39.57;101207.69;5035750;28;1083;-48
2024/01/27 04:08:35;;;;;;;;;;;;;;;17.47;37.94;101211.66;5028042;28;1062;-45
2024/01/27 04:11:00;;;;;;;;;;;;;;;16.41;40.41;101210.44;5035584;28;1967;-48
2024/01/27 04:13:26;;;;;;;;;;;;;;;15.87;41.63;101219.50;5038052;28;1020;-47
2024/01/27 04:15:53;;;;;;;;;;;;;;;15.55;42.02;101233.91;5031182;28;1038;-49
2024/01/27 04:18:19;;;;;;;;;;;;;;;16.73;39.64;101226.06;5029703;28;1081;-45
2024/01/27 04:20:45;;;;;;;;;;;;;;;17.57;38.02;101228.16;5030423;28;2020;-49
2024/01/27 04:23:11;;;;;;;;;;;;;;;16.42;40.20;101220.31;5028736;28;1044;-49
2024/01/27 04:25:36;;;;;;;;;;;;;;;15.91;41.51;101228.88;5024811;28;1146;-46
2024/01/27 04:28:03;;;;;;;;;;;;;;;15.55;42.23;101222.13;5035385;28;1217;-49
2024/01/27 04:30:29;;;;;;;;;;;;;;;16.87;39.51;101231.06;5024824;28;1902;-48
2024/01/27 04:32:54;;;;;;;;;;;;;;;17.74;37.47;101231.53;5038307;28;1016;-49
2024/01/27 04:35:20;;;;;;;;;;;;;;;16.55;39.68;101219.06;5024626;28;1082;-47
2024/01/27 04:37:45;;;;;;;;;;;;;;;16.02;41.30;101209.78;5027283;28;1175;-50
2024/01/27 04:40:12;;;;;;;;;;;;;;;15.63;41.84;101220.88;5025955;28;1099;-48
2024/01/27 04:42:37;;;;;;;;;;;;;;;15.77;41.64;101222.13;5027825;28;1177;-47
2024/01/27 04:45:04;;;;;;;;;;;;;;;17.27;38.55;101214.03;5021287;28;1103;-48
2024/01/27 04:47:30;;;;;;;;;;;;;;;16.89;39.14;101209.72;5037410;28;1015;-50
2024/01/27 04:49:57;;;;;;;;;;;;;;;16.07;40.89;101216.16;5035074;28;2043;-49
2024/01/27 04:52:22;;;;;;;;;;;;;;;15.71;41.98;101214.91;5017669;28;1992;-53
2024/01/27 04:54:48;;;;;;;;;;;;;;;15.78;41.79;101207.34;5034723;28;1118;-50
2024/01/27 04:57:13;;;;;;;;;;;;;;;17.24;38.58;101203.56;5027252;28;1143;-49
2024/01/27 04:59:39;;;;;;;;;;;;;;;16.87;39.37;101203.59;5031078;28;1051;-53
2024/01/27 05:02:04;;;;;;;;;;;;;;;16.03;41.16;101193.09;5029287;28;1087;-54
2024/01/27 05:04:30;;;;;;;;;;;;;;;15.67;41.82;101181.72;5032392;28;1032;-55
2024/01/27 05:06:55;;;;;;;;;;;;;;;15.62;42.31;101180.81;5036675;28;1007;-57
2024/01/27 05:09:21;;;;;;;;;;;;;;;17.17;38.79;101178.25;5018463;28;1098;-48
2024/01/27 05:11:48;;;;;;;;;;;;;;;17.13;38.64;101177.13;5016329;28;1986;-52
2024/01/27 05:14:13;;;;;;;;;;;;;;;16.18;40.58;101177.84;5035916;28;1148;-51
2024/01/27 05:16:40;;;;;;;;;;;;;;;15.69;41.66;101176.78;5026619;28;1028;-51
2024/01/27 05:19:05;;;;;;;;;;;;;;;16.14;41.06;101174.78;5036302;28;1084;-55
2024/01/27 05:21:31;;;;;;;;;;;;;;;17.53;37.67;101161.06;5023173;28;2338;-53
2024/01/27 05:23:56;;;;;;;;;;;;;;;16.23;40.71;101161.44;5036358;28;1043;-52
2024/01/27 05:26:22;;;;;;;;;;;;;;;15.62;42.07;101164.38;5037175;28;1091;-52
2024/01/27 05:28:47;;;;;;;;;;;;;;;16.96;38.82;101163.59;5031534;28;987;-57
2024/01/27 05:31:13;;;;;;;;;;;;;;;15.88;41.28;101169.06;5029687;28;1987;-57
2024/01/27 05:33:41;;;;;;;;;;;;;;;16.71;39.73;101170.56;5036684;28;1138;-51
2024/01/27 05:36:07;;;;;;;;;;;;;;;16.44;40.17;101173.41;5025600;28;1206;-58
2024/01/27 05:38:33;;;;;;;;;;;;;;;15.70;41.55;101174.88;5036369;28;1194;-58
2024/01/27 05:41:00;;;;;;;;;;;;;;;17.11;38.75;101168.34;5035461;28;1072;-57
2024/01/27 05:43:26;;;;;;;;;;;;;;;16.10;40.63;101170.91;5037177;28;1091;-56
2024/01/27 05:45:51;;;;;;;;;;;;;;;16.24;40.55;101163.06;5037351;28;1114;-57
2024/01/27 05:48:17;;;;;;;;;;;;;;;17.19;38.31;101156.00;5018040;28;1154;-56
2024/01/27 05:50:42;;;;;;;;;;;;;;;16.10;40.88;101150.88;5017092;28;2598;-56
2024/01/27 05:53:08;;;;;;;;;;;;;;;17.60;37.80;101151.47;5022485;28;1072;-56
2024/01/27 05:55:33;;;;;;;;;;;;;;;16.90;38.98;101149.00;5029773;28;993;-56
2024/01/27 05:57:59;;;;;;;;;;;;;;;16.19;40.40;101143.84;5034642;28;1032;-57
2024/01/27 06:00:24;;;;;;;;;;;;;;;16.98;39.05;101144.91;5028085;28;1011;-58
2024/01/27 06:02:50;;;;;;;;;;;;;;;16.22;40.33;101155.09;5030191;28;1075;-57
2024/01/27 06:05:15;;;;;;;;;;;;;;;17.31;38.55;101147.53;5027768;28;896;-56
2024/01/27 06:07:41;;;;;;;;;;;;;;;17.38;38.20;101154.44;5036700;28;1075;-57
2024/01/27 06:10:08;;;;;;;;;;;;;;;16.36;40.24;101146.44;5031988;28;1064;-55
2024/01/27 06:12:34;;;;;;;;;;;;;;;16.04;41.05;101139.84;5016208;28;1977;-55
2024/01/27 06:15:00;;;;;;;;;;;;;;;16.51;40.07;101145.69;5030116;28;1043;-58
2024/01/27 06:17:25;;;;;;;;;;;;;;;16.39;40.16;101149.47;5027212;28;900;-57
2024/01/27 06:19:51;;;;;;;;;;;;;;;17.23;38.63;101152.44;5031828;28;2004;-59
2024/01/27 06:22:16;;;;;;;;;;;;;;;18.02;37.05;101144.16;5016920;28;877;-56
2024/01/27 06:24:43;;;;;;;;;;;;;;;16.67;39.84;101139.22;5017279;28;1103;-56
2024/01/27 06:27:09;;;;;;;;;;;;;;;16.31;40.63;101130.72;5016962;28;1063;-55
2024/01/27 06:29:34;;;;;;;;;;;;;;;16.91;39.12;101144.34;5029547;28;1287;-59
2024/01/27 06:32:00;;;;;;;;;;;;;;;16.34;40.67;101157.69;5027217;28;1975;-60
2024/01/27 06:34:25;;;;;;;;;;;;;;;18.01;37.17;101156.25;5019622;28;1052;-59
2024/01/27 06:36:51;;;;;;;;;;;;;;;16.87;39.31;101154.16;5016763;28;934;-56
2024/01/27 06:39:16;;;;;;;;;;;;;;;17.01;39.55;101155.41;5016292;28;1063;-55
2024/01/27 06:41:42;;;;;;;;;;;;;;;18.08;36.90;101148.53;5018897;28;901;-56
2024/01/27 06:44:07;;;;;;;;;;;;;;;16.75;39.50;101146.16;5029022;28;1118;-55
2024/01/27 06:46:33;;;;;;;;;;;;;;;16.37;40.63;101148.09;5026535;28;1032;-57
2024/01/27 06:48:58;;;;;;;;;;;;;;;16.01;41.15;101148.63;5032954;28;1174;-60
2024/01/27 06:51:24;;;;;;;;;;;;;;;17.32;38.78;101149.19;5025640;28;1890;-56
2024/01/27 06:53:49;;;;;;;;;;;;;;;16.23;40.59;101148.53;5023502;28;1139;-55
2024/01/27 06:56:15;;;;;;;;;;;;;;;17.83;37.79;101154.81;5016423;28;1142;-57
2024/01/27 06:58:41;;;;;;;;;;;;;;;17.36;38.52;101144.78;5026093;28;1123;-57
2024/01/27 07:01:06;;;;;;;;;;;;;;;16.41;40.50;101146.44;5022448;28;1126;-56
2024/01/27 07:03:32;;;;;;;;;;;;;;;17.41;38.62;101148.38;5032856;28;1352;-55
2024/01/27 07:06:00;;;;;;;;;;;;;;;16.72;39.93;101147.50;5031825;28;1060;-56
2024/01/27 07:08:26;;;;;;;;;;;;;;;16.81;39.72;101144.25;5019337;28;1083;-56
2024/01/27 07:10:51;;;;;;;;;;;;;;;17.58;37.92;101141.84;5016018;28;1910;-55
2024/01/27 07:13:17;;;;;;;;;;;;;;;16.52;40.33;101136.38;5016856;28;1300;-55
2024/01/27 07:15:42;;;;;;;;;;;;;;;16.17;41.13;101135.03;5020232;28;1107;-52
2024/01/27 07:18:09;;;;;;;;;;;;;;;16.14;41.03;101135.56;5020031;28;1040;-53
2024/01/27 07:20:35;;;;;;;;;;;;;;;17.55;38.28;101139.63;5020425;28;1036;-55
2024/01/27 07:23:01;;;;;;;;;;;;;;;16.35;40.67;101153.81;5022835;28;1144;-53
2024/01/27 07:25:28;;;;;;;;;;;;;;;16.69;40.21;101160.91;5040276;28;1191;-52
2024/01/27 07:27:53;;;;;;;;;;;;;;;16.92;39.19;101151.50;5026055;28;1106;-50
2024/01/27 07:30:19;;;;;;;;;;;;;;;16.25;40.80;101145.53;5032734;28;1001;-54
2024/01/27 07:32:44;;;;;;;;;;;;;;;15.88;41.70;101151.81;5016999;28;2011;-52
2024/01/27 07:35:10;;;;;;;;;;;;;;;16.67;40.10;101152.94;5019446;28;1108;-53
2024/01/27 07:37:36;;;;;;;;;;;;;;;16.38;40.51;101145.09;5032811;28;1064;-54
2024/01/27 07:40:02;;;;;;;;;;;;;;;16.02;41.06;101128.34;5028438;28;1032;-56
2024/01/27 07:42:27;;;;;;;;;;;;;;;17.57;38.06;101145.69;5022370;28;1020;-51
2024/01/27 07:44:53;;;;;;;;;;;;;;;16.42;40.35;101142.63;5017027;28;1084;-56
2024/01/27 07:47:18;;;;;;;;;;;;;;;16.10;41.17;101140.72;5022098;28;1064;-55
2024/01/27 07:49:44;;;;;;;;;;;;;;;17.22;38.64;101144.47;5028741;28;1044;-54
2024/01/27 07:52:10;;;;;;;;;;;;;;;16.22;40.78;101138.63;5021649;28;1946;-52
2024/01/27 07:54:40;;;;;;;;;;;;;;;17.20;39.15;101138.44;5024651;28;1159;-52
2024/01/27 07:57:05;;;;;;;;;;;;;;;17.37;38.49;101140.97;5018703;28;1132;-52
2024/01/27 07:59:31;;;;;;;;;;;;;;;16.30;40.59;101128.25;5028429;28;1246;-53
2024/01/27 08:01:56;;;;;;;;;;;;;;;16.39;40.67;101123.94;5018664;28;1080;-55
2024/01/27 08:04:22;;;;;;;;;;;;;;;17.57;38.29;101123.69;5031625;28;1100;-55
2024/01/27 08:06:50;;;;;;;;;;;;;;;16.43;40.52;101116.84;5017685;28;856;-52
2024/01/27 08:09:16;;;;;;;;;;;;;;;16.10;41.03;101121.53;5024726;28;1096;-54
2024/01/27 08:11:41;;;;;;;;;;;;;;;17.41;38.72;101123.66;5025459;28;1988;-56
2024/01/27 08:14:07;;;;;;;;;;;;;;;16.36;40.55;101121.75;5018770;28;1152;-56
2024/01/27 08:16:32;;;;;;;;;;;;;;;15.95;41.41;101121.41;5031884;28;1198;-56
2024/01/27 08:18:58;;;;;;;;;;;;;;;16.33;40.82;101117.59;5018660;28;1037;-57
2024/01/27 08:21:23;;;;;;;;;;;;;;;17.20;38.91;101116.44;5031467;28;980;-57
2024/01/27 08:23:49;;;;;;;;;;;;;;;16.19;41.22;101122.72;5018766;28;1111;-56
2024/01/27 08:26:14;;;;;;;;;;;;;;;17.90;37.56;101116.03;5018546;28;1075;-55
2024/01/27 08:28:40;;;;;;;;;;;;;;;16.97;39.40;101107.56;5018755;28;1052;-56
2024/01/27 08:31:06;;;;;;;;;;;;;;;16.31;40.63;101106.03;5018254;28;1910;-55
2024/01/27 08:33:31;;;;;;;;;;;;;;;16.65;40.20;101113.97;5030952;28;1020;-56
2024/01/27 08:35:57;;;;;;;;;;;;;;;17.42;38.42;101113.50;5018125;28;1071;-55
2024/01/27 08:38:23;;;;;;;;;;;;;;;16.39;40.66;101116.53;5037799;28;1044;-56
2024/01/27 08:40:48;;;;;;;;;;;;;;;16.62;40.25;101114.50;5025480;28;1131;-59
2024/01/27 08:43:14;;;;;;;;;;;;;;;16.63;40.28;101123.56;5018578;28;1032;-59
2024/01/27 08:45:40;;;;;;;;;;;;;;;16.23;40.92;101126.56;5022502;28;1127;-58
2024/01/27 08:48:05;;;;;;;;;;;;;;;17.91;37.55;101123.22;5028328;28;1021;-57
2024/01/27 08:50:31;;;;;;;;;;;;;;;16.64;40.02;101117.78;5038037;28;1224;-60
2024/01/27 08:52:56;;;;;;;;;;;;;;;16.22;40.88;101115.88;5037725;28;1906;-60
2024/01/27 08:55:23;;;;;;;;;;;;;;;15.98;41.15;101116.22;5023396;28;985;-61
2024/01/27 08:57:49;;;;;;;;;;;;;;;17.12;39.24;101114.22;5035452;28;1095;-57
2024/01/27 09:00:16;;;;;;;;;;;;;;;16.17;41.08;101104.84;5017891;28;1100;-60
2024/01/27 09:02:42;;;;;;;;;;;;;;;17.40;38.49;101107.44;5020612;28;1156;-61
2024/01/27 09:05:08;;;;;;;;;;;;;;;16.79;39.92;101105.22;5028218;28;1146;-59
2024/01/27 09:07:34;;;;;;;;;;;;;;;16.21;41.18;101097.75;5017708;28;896;-58
2024/01/27 09:09:59;;;;;;;;;;;;;;;17.56;38.37;101086.31;5017229;28;1094;-60
2024/01/27 09:12:25;;;;;;;;;;;;;;;16.56;40.10;101083.44;5019678;28;1902;-59
2024/01/27 09:14:50;;;;;;;;;;;;;;;17.27;38.89;101081.28;5028520;28;1039;-60
2024/01/27 09:17:16;;;;;;;;;;;;;;;17.57;38.11;101087.94;5019243;28;1000;-60
2024/01/27 09:19:42;;;;;;;;;;;;;;;16.54;40.23;101084.81;5017410;28;1042;-56
2024/01/27 09:22:07;;;;;;;;;;;;;;;18.06;37.59;101081.13;5017774;28;1119;-59
2024/01/27 09:24:33;;;;;;;;;;;;;;;17.04;39.22;101079.81;5036787;28;1144;-61
2024/01/27 09:26:58;;;;;;;;;;;;;;;16.43;40.43;101083.91;5022875;28;1067;-60
2024/01/27 09:29:24;;;;;;;;;;;;;;;16.35;40.87;101093.44;5015371;28;1046;-58
2024/01/27 09:31:49;;;;;;;;;;;;;;;17.57;38.39;101090.69;5016919;28;2016;-59
2024/01/27 09:34:15;;;;;;;;;;;;;;;16.49;40.37;101091.06;5029676;28;1027;-58
2024/01/27 09:36:40;;;;;;;;;;;;;;;18.03;37.50;101093.50;5028090;28;1079;-56
2024/01/27 09:39:06;;;;;;;;;;;;;;;17.34;39.01;101097.53;5031925;28;1143;-58
2024/01/27 09:41:34;;;;;;;;;;;;;;;16.57;40.28;101100.72;5016434;28;1120;-57
2024/01/27 09:44:03;;;;;;;;;;;;;;;16.17;41.11;101097.47;5016883;28;988;-57
2024/01/27 09:46:29;;;;;;;;;;;;;;;16.95;39.66;101101.50;5028699;28;1029;-56
2024/01/27 09:48:54;;;;;;;;;;;;;;;16.67;40.08;101103.53;5017087;28;1135;-53
2024/01/27 09:51:20;;;;;;;;;;;;;;;16.14;41.15;101094.41;5016591;28;1910;-60
2024/01/27 09:53:45;;;;;;;;;;;;;;;17.56;38.37;101091.81;5016758;28;1122;-60
2024/01/27 09:56:12;;;;;;;;;;;;;;;16.63;40.25;101093.34;5016261;28;1183;-59
2024/01/27 09:58:37;;;;;;;;;;;;;;;17.37;38.91;101108.78;5016963;28;1031;-58
2024/01/27 10:01:03;;;;;;;;;;;;;;;17.82;37.73;101105.56;5017171;28;1097;-61
2024/01/27 10:03:28;;;;;;;;;;;;;;;16.67;40.33;101094.47;5015419;28;1151;-58
2024/01/27 10:05:54;;;;;;;;;;;;;;;16.35;40.99;101103.59;5016484;28;1004;-52
2024/01/27 10:08:20;;;;;;;;;;;;;;;16.69;40.25;101097.75;5016603;28;1081;-55
2024/01/27 10:10:46;;;;;;;;;;;;;;;17.28;39.08;101093.94;5029432;28;1910;-59
2024/01/27 10:13:12;;;;;;;;;;;;;;;16.41;40.58;101086.91;5016753;28;1098;-56
2024/01/27 10:15:38;;;;;;;;;;;;;;;17.42;38.68;101088.75;5027835;28;1144;-59
2024/01/27 10:18:05;;;;;;;;;;;;;;;16.74;40.07;101086.81;5015632;28;1032;-56
2024/01/27 10:20:30;;;;;;;;;;;;;;;16.19;41.07;101078.81;5018876;28;1147;-51
2024/01/27 10:22:56;;;;;;;;;;;;;;;17.31;39.16;101087.91;5026607;28;1095;-55
2024/01/27 10:25:21;;;;;;;;;;;;;;;16.65;40.08;101081.00;5016056;28;1021;-57
2024/01/27 10:27:47;;;;;;;;;;;;;;;16.32;40.92;101083.00;5014964;28;1008;-56
2024/01/27 10:30:17;;;;;;;;;;;;;;;17.38;38.49;101088.47;5029129;28;1066;-57
2024/01/27 10:32:42;;;;;;;;;;;;;;;16.45;40.61;101081.69;5016401;28;1914;-59
2024/01/27 10:35:08;;;;;;;;;;;;;;;17.20;39.24;101081.53;5016035;28;1041;-58
2024/01/27 10:37:34;;;;;;;;;;;;;;;16.86;39.63;101070.94;5016064;28;2081;-58
2024/01/27 10:40:00;;;;;;;;;;;;;;;16.83;40.07;101082.47;5016108;28;1052;-59
2024/01/27 10:42:27;;;;;;;;;;;;;;;18.10;37.44;101080.31;5025803;28;1001;-58
2024/01/27 10:44:52;;;;;;;;;;;;;;;16.82;39.92;101080.00;5019099;28;1008;-58
2024/01/27 10:47:19;;;;;;;;;;;;;;;16.58;40.55;101077.69;5017414;28;1198;-59
2024/01/27 10:49:45;;;;;;;;;;;;;;;17.00;39.50;101071.31;5033611;28;1264;-57
2024/01/27 10:52:11;;;;;;;;;;;;;;;16.39;41.03;101066.31;5019946;28;1905;-60
2024/01/27 10:54:36;;;;;;;;;;;;;;;16.67;40.66;101067.84;5018808;28;1018;-58
2024/01/27 10:57:02;;;;;;;;;;;;;;;16.75;39.91;101072.81;5019911;28;1052;-58
2024/01/27 10:59:28;;;;;;;;;;;;;;;16.18;41.28;101082.63;5027458;28;1013;-61
2024/01/27 11:01:54;;;;;;;;;;;;;;;17.66;38.02;101078.06;5031130;28;1051;-60
2024/01/27 11:04:20;;;;;;;;;;;;;;;16.58;40.27;101077.69;5016257;28;1083;-63
2024/01/27 11:06:47;;;;;;;;;;;;;;;16.19;41.04;101067.00;5015565;28;1144;-63
2024/01/27 11:09:13;;;;;;;;;;;;;;;16.50;40.94;101073.50;5015653;28;1139;-61
2024/01/27 11:11:38;;;;;;;;;;;;;;;16.76;40.01;101070.91;5014680;28;1898;-57
2024/01/27 11:14:04;;;;;;;;;;;;;;;16.94;39.73;101072.38;5018630;28;1052;-60
2024/01/27 11:16:30;;;;;;;;;;;;;;;18.30;37.07;101067.63;5021249;28;1135;-61
2024/01/27 11:18:55;;;;;;;;;;;;;;;16.95;39.63;101068.53;5022292;28;1111;-57
2024/01/27 11:21:21;;;;;;;;;;;;;;;16.40;40.61;101066.03;5034113;28;1083;-58
2024/01/27 11:23:47;;;;;;;;;;;;;;;16.94;39.81;101069.63;5027401;28;1078;-59
2024/01/27 11:26:17;;;;;;;;;;;;;;;16.42;40.48;101060.28;5014616;28;1033;-56
2024/01/27 11:28:42;;;;;;;;;;;;;;;17.59;38.56;101061.81;5015431;28;1088;-56
2024/01/27 11:31:08;;;;;;;;;;;;;;;17.69;38.07;101065.69;5018725;28;1914;-57
2024/01/27 11:33:33;;;;;;;;;;;;;;;16.76;40.03;101063.50;5018001;28;1095;-58
2024/01/27 11:36:02;;;;;;;;;;;;;;;16.32;40.71;101073.97;5027106;28;993;-57
2024/01/27 11:38:28;;;;;;;;;;;;;;;16.94;39.44;101083.34;5017123;28;1076;-58
2024/01/27 11:40:53;;;;;;;;;;;;;;;16.24;41.12;101091.72;5021743;28;1060;-60
2024/01/27 11:43:19;;;;;;;;;;;;;;;17.53;38.39;101089.56;5024340;28;984;-58
2024/01/27 11:45:54;;;;;;;;;;;;;;;16.65;39.98;101089.25;5015324;28;1082;-58
2024/01/27 11:48:20;;;;;;;;;;;;;;;16.20;40.89;101094.19;5027272;28;1240;-47
2024/01/27 11:50:45;;;;;;;;;;;;;;;16.86;40.06;101095.66;5016688;28;1910;-55
2024/01/27 11:53:11;;;;;;;;;;;;;;;16.69;40.06;101095.88;5027059;28;1016;-53
2024/01/27 11:55:37;;;;;;;;;;;;;;;16.26;40.88;101097.78;5016598;28;960;-53
2024/01/27 11:58:03;;;;;;;;;;;;;;;17.70;38.16;101105.84;5015466;28;1127;-56
2024/01/27 12:00:28;;;;;;;;;;;;;;;16.55;40.23;101097.41;5017302;28;1187;-53
2024/01/27 12:02:54;;;;;;;;;;;;;;;16.08;41.05;101099.84;5032326;28;1060;-51
2024/01/27 12:05:19;;;;;;;;;;;;;;;17.47;38.37;101088.75;5018885;28;1031;-56
2024/01/27 12:07:45;;;;;;;;;;;;;;;16.43;40.44;101092.94;5018561;28;888;-56
2024/01/27 12:10:11;;;;;;;;;;;;;;;17.36;38.65;101101.66;5029656;28;1032;-56
2024/01/27 12:12:36;;;;;;;;;;;;;;;17.30;38.64;101090.91;5024585;28;1973;-57
2024/01/27 12:15:02;;;;;;;;;;;;;;;16.38;40.87;101090.19;5038634;28;1108;-58
2024/01/27 12:17:28;;;;;;;;;;;;;;;16.60;40.49;101095.53;5020178;28;1011;-56
2024/01/27 12:19:53;;;;;;;;;;;;;;;16.72;40.08;101097.25;5029313;28;1084;-54
2024/01/27 12:22:28;;;;;;;;;;;;;;;16.15;41.24;101096.06;5020068;28;976;-58
2024/01/27 12:24:54;;;;;;;;;;;;;;;17.34;38.67;101097.53;5018533;28;1243;-60
2024/01/27 12:27:20;;;;;;;;;;;;;;;16.26;40.89;101097.78;5030946;28;1083;-57
2024/01/27 12:29:49;;;;;;;;;;;;;;;15.96;41.35;101095.63;5018507;28;1012;-59
2024/01/27 12:32:15;;;;;;;;;;;;;;;17.02;39.25;101091.09;5017983;28;1913;-61
2024/01/27 12:34:41;;;;;;;;;;;;;;;16.16;41.03;101094.94;5029897;28;1017;-58
2024/01/27 12:37:07;;;;;;;;;;;;;;;17.16;39.40;101090.59;5025790;28;1053;-61
2024/01/27 12:39:32;;;;;;;;;;;;;;;16.72;39.95;101102.75;5022598;28;1084;-61